Millers, Virginia
Current Conditions -  °F | °C
As of 9:54 PM on Wednesday 22 Oct 2014 (Local Time) from KRIC Reporting Station
Overcast Overcast  
Wind Chill: 55°   Ceiling: 12000
Heat Index: 55°   Visibility: 10mi
Dew Point: 44°   Wind: 18mph
Humidity: 67%   Direction: 330°NNW
Pressure: 29.96"   Gusts: 26mph
Location:  37.4458°N, 77.3237°W
Report Text: KRIC 230154Z 33016G23KT 10SM FEW040 SCT065 OVC120 13/07 A2996 RMK AO2 SLP151 T01280067
Loading
Personal Weather Stations






























Interactive Weather Map
Tropical Storm Tracking
New forecast layout! Learn more

10-Day Weather Forecast

Advertisements
Track Severe Weather on mobile